createdAt,value
2023-04-23T00:01:00.551Z,0
2023-04-23T00:02:01.152Z,0
2023-04-23T00:03:01.828Z,0
2023-04-23T00:04:02.523Z,0
2023-04-23T00:05:03.217Z,0
2023-04-23T00:06:03.850Z,0
2023-04-23T00:07:04.471Z,0
2023-04-23T00:08:05.063Z,0
2023-04-23T00:09:05.683Z,0
2023-04-23T00:10:06.272Z,0
2023-04-23T00:11:06.875Z,0
2023-04-23T00:12:07.473Z,0
2023-04-23T00:13:08.147Z,0
2023-04-23T00:14:08.695Z,0
2023-04-23T00:15:09.291Z,0
2023-04-23T00:16:09.887Z,0
2023-04-23T00:17:10.485Z,0
2023-04-23T00:18:11.105Z,0
2023-04-23T00:19:11.722Z,0
2023-04-23T00:20:12.336Z,0
2023-04-23T00:21:12.945Z,0
2023-04-23T00:22:13.558Z,0
2023-04-23T00:23:14.151Z,0
2023-04-23T00:24:14.750Z,0
2023-04-23T00:25:15.347Z,0
2023-04-23T00:26:15.944Z,0
2023-04-23T00:27:16.544Z,0
2023-04-23T00:28:17.171Z,0
2023-04-23T00:29:17.767Z,0
2023-04-23T00:30:18.376Z,0
2023-04-23T00:31:18.975Z,0
2023-04-23T00:32:19.591Z,0
2023-04-23T00:33:20.170Z,0
2023-04-23T00:34:20.757Z,0
2023-04-23T00:35:21.362Z,0
2023-04-23T00:36:21.955Z,0
2023-04-23T00:37:22.552Z,0
2023-04-23T00:38:23.154Z,0
2023-04-23T00:39:23.747Z,0
2023-04-23T00:40:24.346Z,0
2023-04-23T00:41:24.940Z,0
2023-04-23T00:42:25.536Z,0
2023-04-23T00:43:26.131Z,0
2023-04-23T00:44:26.725Z,0
2023-04-23T00:45:27.326Z,0
2023-04-23T00:46:27.932Z,0
2023-04-23T00:47:28.519Z,0
2023-04-23T00:48:29.109Z,0
2023-04-23T00:49:29.725Z,0
2023-04-23T00:50:30.320Z,0
2023-04-23T00:51:30.919Z,0
2023-04-23T00:52:31.523Z,0
2023-04-23T00:53:32.128Z,0
2023-04-23T00:54:32.723Z,0
2023-04-23T00:55:33.323Z,0
2023-04-23T00:56:33.937Z,0
2023-04-23T00:57:34.556Z,0
2023-04-23T00:58:35.170Z,0
2023-04-23T00:59:35.767Z,0
2023-04-23T01:00:36.384Z,0
2023-04-23T01:01:37.077Z,0
2023-04-23T01:02:37.801Z,0
2023-04-23T01:03:38.609Z,0
2023-04-23T01:04:39.248Z,0
2023-04-23T01:05:39.904Z,0
2023-04-23T01:06:40.506Z,0
2023-04-23T01:07:41.119Z,0
2023-04-23T01:08:41.715Z,0
2023-04-23T01:09:42.312Z,0
2023-04-23T01:10:42.913Z,0
2023-04-23T01:11:43.504Z,0
2023-04-23T01:12:44.100Z,0
2023-04-23T01:13:44.702Z,0
2023-04-23T01:14:45.296Z,0
2023-04-23T01:15:45.892Z,0
2023-04-23T01:16:46.551Z,0
2023-04-23T01:17:47.136Z,0
2023-04-23T01:18:47.712Z,0
2023-04-23T01:19:48.298Z,0
2023-04-23T01:20:48.913Z,0
2023-04-23T01:21:49.516Z,0
2023-04-23T01:22:50.124Z,0
2023-04-23T01:23:50.724Z,0
2023-04-23T01:24:51.321Z,0
2023-04-23T01:25:51.922Z,0
2023-04-23T01:26:52.513Z,0
2023-04-23T01:27:53.126Z,0
2023-04-23T01:28:53.719Z,0
2023-04-23T01:29:54.313Z,0
2023-04-23T01:30:54.924Z,0
2023-04-23T01:31:55.508Z,0
2023-04-23T01:32:56.138Z,0
2023-04-23T01:33:56.715Z,0
2023-04-23T01:34:57.311Z,0
2023-04-23T01:35:57.927Z,0
2023-04-23T01:36:58.560Z,0
2023-04-23T01:37:59.135Z,0
2023-04-23T01:38:59.759Z,0
2023-04-23T01:40:00.367Z,0
2023-04-23T01:41:00.972Z,0
2023-04-23T01:42:01.559Z,0
2023-04-23T01:43:02.161Z,0
2023-04-23T01:44:02.787Z,0
2023-04-23T01:45:03.396Z,0
2023-04-23T01:46:04.041Z,0
2023-04-23T01:47:06.967Z,0
2023-04-23T01:48:06.226Z,0
2023-04-23T01:49:06.798Z,0
2023-04-23T01:50:07.396Z,0
2023-04-23T01:51:07.997Z,0
2023-04-23T01:52:08.592Z,0
2023-04-23T01:53:09.189Z,0
2023-04-23T01:54:09.800Z,0
2023-04-23T01:55:10.404Z,0
2023-04-23T01:56:11.023Z,0
2023-04-23T01:57:11.598Z,0
2023-04-23T01:58:12.197Z,0
2023-04-23T01:59:12.793Z,0
2023-04-23T02:00:13.410Z,0
2023-04-23T02:01:14.102Z,0
2023-04-23T02:02:14.693Z,0
2023-04-23T02:03:15.417Z,0
2023-04-23T02:04:16.057Z,0
2023-04-23T02:05:16.821Z,0
2023-04-23T02:06:17.290Z,0
2023-04-23T02:07:17.890Z,0
2023-04-23T02:08:18.484Z,0
2023-04-23T02:09:19.120Z,0
2023-04-23T02:10:19.684Z,0
2023-04-23T02:11:20.292Z,0
2023-04-23T02:12:20.874Z,0
2023-04-23T02:13:21.475Z,0
2023-04-23T02:14:22.068Z,0
2023-04-23T02:15:22.682Z,0
2023-04-23T02:16:23.275Z,0
2023-04-23T02:17:23.902Z,0
2023-04-23T02:18:24.457Z,0
2023-04-23T02:19:25.064Z,0
2023-04-23T02:20:25.648Z,0
2023-04-23T02:21:26.240Z,0
2023-04-23T02:22:26.839Z,0
2023-04-23T02:23:27.453Z,0
2023-04-23T02:24:28.031Z,0
2023-04-23T02:25:28.652Z,0
2023-04-23T02:26:29.257Z,0
2023-04-23T02:27:29.842Z,0
2023-04-23T02:28:30.457Z,0
2023-04-23T02:29:31.054Z,0
2023-04-23T02:30:31.648Z,0
2023-04-23T02:31:32.277Z,0
2023-04-23T02:32:32.881Z,0
2023-04-23T02:33:33.470Z,0
2023-04-23T02:34:34.071Z,0
2023-04-23T02:35:34.689Z,0
2023-04-23T02:36:35.296Z,0
2023-04-23T02:37:35.882Z,0
2023-04-23T02:38:36.478Z,0
2023-04-23T02:39:37.074Z,0
2023-04-23T02:40:37.673Z,0
2023-04-23T02:41:38.289Z,0
2023-04-23T02:42:39.109Z,0
2023-04-23T02:43:40.421Z,0
2023-04-23T02:44:41.402Z,0
2023-04-23T02:45:42.148Z,0
2023-04-23T02:46:42.767Z,0
2023-04-23T02:47:43.436Z,0
2023-04-23T02:48:43.993Z,0
2023-04-23T02:49:44.586Z,0
2023-04-23T02:50:45.187Z,0
2023-04-23T02:51:45.798Z,0
2023-04-23T02:52:46.394Z,0
2023-04-23T02:53:46.989Z,0
2023-04-23T02:54:47.605Z,0
2023-04-23T02:55:48.203Z,0
2023-04-23T02:56:48.820Z,0
2023-04-23T02:57:49.417Z,0
2023-04-23T02:58:50.015Z,0
2023-04-23T02:59:50.609Z,0
2023-04-23T03:00:51.268Z,0
2023-04-23T03:01:51.905Z,0
2023-04-23T03:02:52.601Z,0
2023-04-23T03:03:53.415Z,0
2023-04-23T03:04:53.890Z,0
2023-04-23T03:05:54.485Z,0
2023-04-23T03:06:55.082Z,0
2023-04-23T03:07:55.682Z,0
2023-04-23T03:08:56.316Z,0
2023-04-23T03:09:56.915Z,0
2023-04-23T03:10:57.503Z,0
2023-04-23T03:11:58.112Z,0
2023-04-23T03:12:58.696Z,0
2023-04-23T03:13:59.295Z,0
2023-04-23T03:14:59.908Z,0
2023-04-23T03:16:00.510Z,0
2023-04-23T03:17:01.175Z,0
2023-04-23T03:18:01.848Z,0
2023-04-23T03:19:02.456Z,0
2023-04-23T03:20:03.061Z,0
2023-04-23T03:21:03.672Z,0
2023-04-23T03:22:04.264Z,0
2023-04-23T03:23:04.876Z,0
2023-04-23T03:24:05.498Z,0
2023-04-23T03:25:06.091Z,0
2023-04-23T03:26:06.695Z,0
2023-04-23T03:27:07.289Z,0
2023-04-23T03:28:07.879Z,0
2023-04-23T03:29:08.498Z,0
2023-04-23T03:30:09.100Z,0
2023-04-23T03:31:09.742Z,0
2023-04-23T03:32:10.321Z,0
2023-04-23T03:33:10.924Z,0
2023-04-23T03:34:11.539Z,0
2023-04-23T03:35:12.151Z,0
2023-04-23T03:36:12.757Z,0
2023-04-23T03:37:13.354Z,0
2023-04-23T03:38:13.954Z,0
2023-04-23T03:39:14.550Z,0
2023-04-23T03:40:15.243Z,0
2023-04-23T03:41:15.829Z,0
2023-04-23T03:42:16.428Z,0
2023-04-23T03:43:17.036Z,0
2023-04-23T03:44:17.671Z,0
2023-04-23T03:45:18.216Z,0
2023-04-23T03:46:18.847Z,0
2023-04-23T03:47:19.435Z,0
2023-04-23T03:48:20.002Z,0
2023-04-23T03:49:20.601Z,0
2023-04-23T03:50:21.218Z,0
2023-04-23T03:51:21.858Z,0
2023-04-23T03:52:22.476Z,0
2023-04-23T03:53:23.071Z,0
2023-04-23T03:54:23.668Z,0
2023-04-23T03:55:24.285Z,0
2023-04-23T03:56:27.050Z,0
2023-04-23T03:57:25.483Z,0
2023-04-23T03:58:26.077Z,0
2023-04-23T03:59:26.669Z,0
2023-04-23T04:00:27.266Z,0
2023-04-23T04:01:27.887Z,0
2023-04-23T04:02:28.594Z,0
2023-04-23T04:03:29.372Z,0
2023-04-23T04:04:30.350Z,0
2023-04-23T04:05:31.136Z,0
2023-04-23T04:06:31.719Z,5
2023-04-23T04:07:32.347Z,5
2023-04-23T04:08:32.942Z,5
2023-04-23T04:09:33.541Z,5
2023-04-23T04:10:34.137Z,5
2023-04-23T04:11:34.737Z,5
2023-04-23T04:12:35.338Z,11
2023-04-23T04:13:35.956Z,11
2023-04-23T04:14:36.563Z,11
2023-04-23T04:15:37.155Z,11
2023-04-23T04:16:37.757Z,11
2023-04-23T04:17:38.387Z,11
2023-04-23T04:18:38.954Z,11
2023-04-23T04:19:39.551Z,11
2023-04-23T04:20:40.151Z,16
2023-04-23T04:21:40.771Z,16
2023-04-23T04:22:41.351Z,16
2023-04-23T04:23:41.951Z,22
2023-04-23T04:24:42.849Z,22
2023-04-23T04:25:43.585Z,28
2023-04-23T04:26:44.185Z,33
2023-04-23T04:27:44.779Z,33
2023-04-23T04:28:45.391Z,39
2023-04-23T04:29:46.000Z,50
2023-04-23T04:30:46.600Z,56
2023-04-23T04:31:47.241Z,56
2023-04-23T04:32:47.880Z,56
2023-04-23T04:33:48.433Z,56
2023-04-23T04:34:49.029Z,56
2023-04-23T04:35:49.670Z,56
2023-04-23T04:36:50.263Z,50
2023-04-23T04:37:50.875Z,50
2023-04-23T04:38:51.476Z,45
2023-04-23T04:39:52.080Z,39
2023-04-23T04:40:52.688Z,39
2023-04-23T04:41:53.297Z,39
2023-04-23T04:42:53.892Z,45
2023-04-23T04:43:54.485Z,45
2023-04-23T04:44:55.087Z,50
2023-04-23T04:45:55.752Z,50
2023-04-23T04:46:56.299Z,56
2023-04-23T04:47:56.988Z,56
2023-04-23T04:48:57.548Z,61
2023-04-23T04:49:58.192Z,67
2023-04-23T04:50:58.772Z,67
2023-04-23T04:51:59.374Z,73
2023-04-23T04:52:59.970Z,73
2023-04-23T04:54:00.592Z,78
2023-04-23T04:55:01.169Z,78
2023-04-23T04:56:01.775Z,78
2023-04-23T04:57:02.443Z,78
2023-04-23T04:58:03.043Z,78
2023-04-23T04:59:03.652Z,84
2023-04-23T05:00:04.242Z,90
2023-04-23T05:01:04.873Z,95
2023-04-23T05:02:05.520Z,101
2023-04-23T05:03:06.275Z,106
2023-04-23T05:04:07.214Z,112
2023-04-23T05:05:07.924Z,118
2023-04-23T05:06:08.526Z,123
2023-04-23T05:07:09.145Z,129
2023-04-23T05:08:09.750Z,135
2023-04-23T05:09:10.351Z,140
2023-04-23T05:10:10.958Z,146
2023-04-23T05:11:11.554Z,151
2023-04-23T05:12:12.162Z,163
2023-04-23T05:13:12.770Z,163
2023-04-23T05:14:13.394Z,168
2023-04-23T05:15:13.961Z,180
2023-04-23T05:16:14.618Z,185
2023-04-23T05:17:15.193Z,191
2023-04-23T05:18:15.781Z,196
2023-04-23T05:19:16.392Z,202
2023-04-23T05:20:16.987Z,213
2023-04-23T05:21:17.609Z,213
2023-04-23T05:22:18.350Z,219
2023-04-23T05:23:18.994Z,219
2023-04-23T05:24:19.559Z,225
2023-04-23T05:25:20.159Z,230
2023-04-23T05:26:20.756Z,236
2023-04-23T05:27:21.383Z,241
2023-04-23T05:28:21.988Z,230
2023-04-23T05:29:22.591Z,230
2023-04-23T05:30:23.193Z,225
2023-04-23T05:31:23.825Z,225
2023-04-23T05:32:24.492Z,219
2023-04-23T05:33:27.049Z,225
2023-04-23T05:34:26.667Z,230
2023-04-23T05:35:27.263Z,241
2023-04-23T05:36:27.871Z,258
2023-04-23T05:37:28.466Z,275
2023-04-23T05:38:29.094Z,292
2023-04-23T05:39:29.709Z,315
2023-04-23T05:40:30.356Z,331
2023-04-23T05:41:30.951Z,343
2023-04-23T05:42:31.549Z,348
2023-04-23T05:43:32.150Z,354
2023-04-23T05:44:32.776Z,365
2023-04-23T05:45:33.369Z,371
2023-04-23T05:46:33.985Z,382
2023-04-23T05:47:34.600Z,393
2023-04-23T05:48:35.177Z,399
2023-04-23T05:49:35.780Z,399
2023-04-23T05:50:36.397Z,399
2023-04-23T05:51:37.018Z,399
2023-04-23T05:52:37.745Z,399
2023-04-23T05:53:38.370Z,399
2023-04-23T05:54:39.064Z,410
2023-04-23T05:55:39.586Z,416
2023-04-23T05:56:40.191Z,421
2023-04-23T05:57:40.788Z,427
2023-04-23T05:58:41.390Z,427
2023-04-23T05:59:41.990Z,433
2023-04-23T06:00:42.601Z,438
2023-04-23T06:01:43.195Z,438
2023-04-23T06:02:43.962Z,444
2023-04-23T06:03:44.770Z,444
2023-04-23T06:04:46.085Z,444
2023-04-23T06:05:47.023Z,455
2023-04-23T06:06:47.678Z,466
2023-04-23T06:07:48.280Z,483
2023-04-23T06:08:48.902Z,500
2023-04-23T06:09:49.502Z,534
2023-04-23T06:10:50.106Z,551
2023-04-23T06:11:50.709Z,562
2023-04-23T06:12:51.330Z,573
2023-04-23T06:13:51.933Z,585
2023-04-23T06:14:52.535Z,624
2023-04-23T06:15:53.154Z,652
2023-04-23T06:16:53.782Z,675
2023-04-23T06:17:54.443Z,697
2023-04-23T06:18:55.086Z,714
2023-04-23T06:19:55.696Z,725
2023-04-23T06:20:56.289Z,731
2023-04-23T06:21:56.891Z,742
2023-04-23T06:22:57.494Z,725
2023-04-23T06:23:58.098Z,720
2023-04-23T06:24:58.698Z,720
2023-04-23T06:25:59.318Z,703
2023-04-23T06:26:59.921Z,703
2023-04-23T06:28:00.530Z,697
2023-04-23T06:29:01.121Z,691
2023-04-23T06:30:01.741Z,680
2023-04-23T06:31:02.372Z,669
2023-04-23T06:32:02.952Z,652
2023-04-23T06:33:03.707Z,635
2023-04-23T06:34:04.319Z,618
2023-04-23T06:35:05.079Z,601
2023-04-23T06:36:05.768Z,579
2023-04-23T06:37:06.369Z,568
2023-04-23T06:38:06.970Z,556
2023-04-23T06:39:07.573Z,545
2023-04-23T06:40:08.194Z,528
2023-04-23T06:41:08.778Z,523
2023-04-23T06:42:09.383Z,517
2023-04-23T06:43:10.012Z,511
2023-04-23T06:44:10.620Z,489
2023-04-23T06:45:11.231Z,461
2023-04-23T06:46:11.828Z,450
2023-04-23T06:47:12.517Z,438
2023-04-23T06:48:13.091Z,433
2023-04-23T06:49:13.649Z,427
2023-04-23T06:50:14.276Z,450
2023-04-23T06:51:14.902Z,495
2023-04-23T06:52:15.498Z,500
2023-04-23T06:53:16.120Z,523
2023-04-23T06:54:16.706Z,573
2023-04-23T06:55:17.315Z,585
2023-04-23T06:56:17.913Z,945
2023-04-23T06:57:18.512Z,849
2023-04-23T06:58:19.116Z,950
2023-04-23T06:59:19.738Z,663
2023-04-23T07:00:20.379Z,697
2023-04-23T07:01:21.120Z,663
2023-04-23T07:02:21.758Z,725
2023-04-23T07:03:22.475Z,798
2023-04-23T07:04:23.129Z,877
2023-04-23T07:05:23.719Z,1327
2023-04-23T07:06:24.321Z,1372
2023-04-23T07:07:24.935Z,1321
2023-04-23T07:08:25.547Z,922
2023-04-23T07:09:26.172Z,1130
2023-04-23T07:10:26.787Z,883
2023-04-23T07:11:27.379Z,1288
2023-04-23T07:12:27.984Z,1344
2023-04-23T07:13:28.615Z,1327
2023-04-23T07:14:29.234Z,1338
2023-04-23T07:15:29.893Z,1080
2023-04-23T07:16:30.495Z,1063
2023-04-23T07:17:31.124Z,967
2023-04-23T07:18:31.696Z,894
2023-04-23T07:19:32.321Z,916
2023-04-23T07:20:32.939Z,939
2023-04-23T07:21:33.597Z,939
2023-04-23T07:22:34.336Z,922
2023-04-23T07:23:35.064Z,905
2023-04-23T07:24:35.988Z,916
2023-04-23T07:25:36.508Z,928
2023-04-23T07:26:36.851Z,933
2023-04-23T07:27:37.452Z,939
2023-04-23T07:28:38.081Z,928
2023-04-23T07:29:38.677Z,950
2023-04-23T07:30:39.282Z,1006
2023-04-23T07:31:39.897Z,1125
2023-04-23T07:32:40.559Z,1085
2023-04-23T07:33:41.139Z,967
2023-04-23T07:34:41.944Z,888
2023-04-23T07:35:42.705Z,860
2023-04-23T07:36:43.327Z,826
2023-04-23T07:37:43.930Z,787
2023-04-23T07:38:44.560Z,798
2023-04-23T07:39:45.337Z,849
2023-04-23T07:40:46.049Z,1108
2023-04-23T07:41:46.672Z,1288
2023-04-23T07:42:47.282Z,1620
2023-04-23T07:43:47.903Z,1260
2023-04-23T07:44:48.494Z,1254
2023-04-23T07:45:49.120Z,1451
2023-04-23T07:46:49.709Z,894
2023-04-23T07:47:50.361Z,821
2023-04-23T07:48:50.919Z,804
2023-04-23T07:49:51.519Z,1580
2023-04-23T07:50:52.123Z,1085
2023-04-23T07:51:52.730Z,1687
2023-04-23T07:52:53.333Z,1710
2023-04-23T07:53:53.937Z,1681
2023-04-23T07:54:54.565Z,1665
2023-04-23T07:55:55.163Z,1665
2023-04-23T07:56:55.770Z,1687
2023-04-23T07:57:56.392Z,1710
2023-04-23T07:58:56.991Z,1726
2023-04-23T07:59:57.599Z,1743
2023-04-23T08:00:58.199Z,1760
2023-04-23T08:01:58.821Z,1816
2023-04-23T08:02:59.585Z,1867
2023-04-23T08:04:00.351Z,1923
2023-04-23T08:05:01.381Z,1957
2023-04-23T08:06:01.978Z,1951
2023-04-23T08:07:02.582Z,1963
2023-04-23T08:08:03.189Z,1991
2023-04-23T08:09:03.795Z,2025
2023-04-23T08:10:04.400Z,2086
2023-04-23T08:11:05.030Z,2092
2023-04-23T08:12:05.633Z,2103
2023-04-23T08:13:06.258Z,2120
2023-04-23T08:14:06.839Z,2126
2023-04-23T08:15:07.602Z,2103
2023-04-23T08:16:08.249Z,2092
2023-04-23T08:17:08.857Z,2115
2023-04-23T08:18:09.477Z,2143
2023-04-23T08:19:10.085Z,2131
2023-04-23T08:20:10.692Z,2126
2023-04-23T08:21:11.326Z,2064
2023-04-23T08:22:11.932Z,2041
2023-04-23T08:23:12.642Z,2064
2023-04-23T08:24:13.189Z,2086
2023-04-23T08:25:13.821Z,2120
2023-04-23T08:26:14.432Z,2165
2023-04-23T08:27:15.032Z,2227
2023-04-23T08:28:15.644Z,2306
2023-04-23T08:29:16.238Z,2311
2023-04-23T08:30:16.840Z,2345
2023-04-23T08:31:25.514Z,2373
2023-04-23T08:32:18.162Z,2373
2023-04-23T08:33:18.735Z,2351
2023-04-23T08:34:19.355Z,2311
2023-04-23T08:35:19.978Z,2317
2023-04-23T08:36:20.581Z,2345
2023-04-23T08:37:30.350Z,2351
2023-04-23T08:38:22.777Z,2368
2023-04-23T08:39:23.381Z,2356
2023-04-23T08:40:24.004Z,2345
2023-04-23T08:41:24.613Z,2311
2023-04-23T08:42:25.231Z,2328
2023-04-23T08:43:25.833Z,2385
2023-04-23T08:44:26.435Z,2413
2023-04-23T08:45:27.062Z,2446
2023-04-23T08:46:27.694Z,2486
2023-04-23T08:47:28.295Z,2531
2023-04-23T08:48:28.902Z,2559
2023-04-23T08:49:29.523Z,2553
2023-04-23T08:50:30.122Z,2548
2023-04-23T08:51:30.752Z,2531
2023-04-23T08:52:31.339Z,2559
2023-04-23T08:53:31.930Z,2598
2023-04-23T08:54:32.533Z,2643
2023-04-23T08:55:33.131Z,2705
2023-04-23T08:56:33.737Z,2716
2023-04-23T08:57:34.333Z,2756
2023-04-23T08:58:34.937Z,2767
2023-04-23T08:59:35.538Z,2784
2023-04-23T09:00:36.187Z,2835
2023-04-23T09:01:36.754Z,2885
2023-04-23T09:02:37.472Z,2953
2023-04-23T09:03:38.157Z,3009
2023-04-23T09:04:38.661Z,3071
2023-04-23T09:05:39.258Z,3065
2023-04-23T09:06:39.859Z,3031
2023-04-23T09:07:40.461Z,2975
2023-04-23T09:08:41.081Z,2941
2023-04-23T09:09:41.890Z,2880
2023-04-23T09:10:42.567Z,2868
2023-04-23T09:11:43.165Z,2790
2023-04-23T09:12:43.766Z,2739
2023-04-23T09:13:44.368Z,2767
2023-04-23T09:14:45.138Z,2835
2023-04-23T09:15:45.768Z,2868
2023-04-23T09:16:46.482Z,2958
2023-04-23T09:17:47.164Z,3060
2023-04-23T09:18:47.820Z,3121
2023-04-23T09:19:48.337Z,3195
2023-04-23T09:20:48.940Z,3234
2023-04-23T09:21:49.539Z,3245
2023-04-23T09:22:50.141Z,3234
2023-04-23T09:23:50.743Z,3195
2023-04-23T09:24:51.375Z,3178
2023-04-23T09:25:51.967Z,3099
2023-04-23T09:26:52.572Z,3031
2023-04-23T09:27:53.223Z,3037
2023-04-23T09:28:53.790Z,3076
2023-04-23T09:29:54.393Z,3093
2023-04-23T09:30:54.992Z,2885
2023-04-23T09:31:55.628Z,3116
2023-04-23T09:32:56.255Z,3285
2023-04-23T09:33:56.823Z,3397
2023-04-23T09:34:57.427Z,3526
2023-04-23T09:35:58.061Z,3712
2023-04-23T09:36:58.653Z,3796
2023-04-23T09:37:59.257Z,3836
2023-04-23T09:38:59.864Z,3813
2023-04-23T09:40:00.456Z,3470
2023-04-23T09:41:01.060Z,3628
2023-04-23T09:42:01.664Z,3701
2023-04-23T09:43:02.268Z,3594
2023-04-23T09:44:02.892Z,3729
2023-04-23T09:45:03.610Z,3825
2023-04-23T09:46:04.211Z,3898
2023-04-23T09:47:04.822Z,4016
2023-04-23T09:48:05.472Z,956
2023-04-23T09:49:06.035Z,1670
2023-04-23T09:50:06.634Z,4123
2023-04-23T09:51:07.235Z,4016
2023-04-23T09:52:07.838Z,3594
2023-04-23T09:53:08.461Z,3656
2023-04-23T09:54:09.042Z,3645
2023-04-23T09:55:09.651Z,1192
2023-04-23T09:56:10.266Z,1783
2023-04-23T09:57:10.870Z,3695
2023-04-23T09:58:11.514Z,3684
2023-04-23T09:59:12.099Z,1653
2023-04-23T10:00:14.804Z,3909
2023-04-23T10:01:14.310Z,4185
2023-04-23T10:02:15.030Z,3915
2023-04-23T10:03:15.649Z,4089
2023-04-23T10:04:16.484Z,3920
2023-04-23T10:06:31.081Z,1721
2023-04-23T10:07:20.659Z,2666
2023-04-23T10:08:21.276Z,4072
2023-04-23T10:09:21.882Z,4021
2023-04-23T10:10:22.515Z,3943
2023-04-23T10:11:23.103Z,3926
2023-04-23T10:13:25.299Z,1766
2023-04-23T10:14:25.902Z,2542
2023-04-23T10:15:26.564Z,3723
2023-04-23T10:16:32.990Z,3751
2023-04-23T10:17:28.734Z,4089
2023-04-23T10:18:29.324Z,2424
2023-04-23T10:19:29.926Z,2120
2023-04-23T10:20:30.526Z,2475
2023-04-23T10:21:42.547Z,1839
2023-04-23T10:22:32.724Z,1546
2023-04-23T10:23:33.325Z,2356
2023-04-23T10:24:33.940Z,3768
2023-04-23T10:25:34.551Z,3825
2023-04-23T10:26:35.182Z,4359
2023-04-23T10:27:51.138Z,1963
2023-04-23T10:28:36.415Z,4016
2023-04-23T10:29:37.022Z,4128
2023-04-23T10:30:37.625Z,4173
2023-04-23T10:31:38.376Z,4263
2023-04-23T10:32:38.879Z,4370
2023-04-23T10:33:49.408Z,3594
2023-04-23T10:34:40.080Z,3363
2023-04-23T10:35:40.694Z,4072
2023-04-23T10:36:41.289Z,4685
2023-04-23T10:37:41.889Z,2812
2023-04-23T10:38:56.925Z,3436
2023-04-23T10:39:44.099Z,4758
2023-04-23T10:40:44.691Z,4865
2023-04-23T10:41:45.294Z,2947
2023-04-23T10:42:45.904Z,2272
2023-04-23T10:43:46.495Z,2452
2023-04-23T10:44:59.143Z,2227
2023-04-23T10:45:48.694Z,1957
2023-04-23T10:46:49.350Z,1811
2023-04-23T10:47:50.085Z,1726
2023-04-23T10:48:50.676Z,1597
2023-04-23T10:49:51.297Z,1513
2023-04-23T10:51:08.158Z,1417
2023-04-23T10:52:55.148Z,1175
2023-04-23T10:53:55.685Z,1063
2023-04-23T10:54:56.314Z,1001
2023-04-23T10:55:56.930Z,984
2023-04-23T10:56:57.554Z,973
2023-04-23T10:58:00.594Z,990
2023-04-23T10:58:59.770Z,990
2023-04-23T11:00:00.368Z,995
2023-04-23T11:01:00.971Z,978
2023-04-23T11:02:01.584Z,939
2023-04-23T11:03:02.334Z,877
2023-04-23T11:04:02.945Z,832
2023-04-23T11:05:03.713Z,793
2023-04-23T11:06:04.209Z,770
2023-04-23T11:07:04.809Z,742
2023-04-23T11:08:18.228Z,725
2023-04-23T11:09:06.029Z,697
2023-04-23T11:10:06.635Z,663
2023-04-23T11:11:07.254Z,663
2023-04-23T11:12:07.854Z,708
2023-04-23T11:13:08.455Z,843
2023-04-23T11:14:09.056Z,1080
2023-04-23T11:15:09.680Z,1344
2023-04-23T11:16:10.330Z,1642
2023-04-23T11:17:10.914Z,1771
2023-04-23T11:18:11.513Z,1811
2023-04-23T11:19:12.116Z,1906
2023-04-23T11:20:12.718Z,1985
2023-04-23T11:21:13.319Z,1923
2023-04-23T11:22:13.924Z,1833
2023-04-23T11:23:14.524Z,1698
2023-04-23T11:24:15.145Z,1614
2023-04-23T11:25:15.751Z,1552
2023-04-23T11:26:16.378Z,1361
2023-04-23T11:27:16.980Z,1209
2023-04-23T11:28:17.585Z,1063
2023-04-23T11:29:18.183Z,961
2023-04-23T11:30:18.792Z,900
2023-04-23T11:31:19.476Z,860
2023-04-23T11:32:20.120Z,894
2023-04-23T11:33:20.775Z,950
2023-04-23T11:34:21.330Z,1018
2023-04-23T11:35:21.927Z,1153
2023-04-23T11:36:22.535Z,1288
2023-04-23T11:37:23.154Z,1316
2023-04-23T11:38:23.762Z,1271
2023-04-23T11:39:24.362Z,1243
2023-04-23T11:40:24.982Z,1226
2023-04-23T11:41:25.582Z,1198
2023-04-23T11:42:26.187Z,1220
2023-04-23T11:43:26.788Z,1366
2023-04-23T11:44:27.393Z,1687
2023-04-23T11:45:27.995Z,1946
2023-04-23T11:46:28.629Z,1845
2023-04-23T11:47:29.223Z,1743
2023-04-23T11:48:29.811Z,1603
2023-04-23T11:49:30.412Z,1558
2023-04-23T11:50:31.037Z,1614
2023-04-23T11:51:31.618Z,1766
2023-04-23T11:52:32.220Z,1968
2023-04-23T11:53:32.828Z,1980
2023-04-23T11:54:33.426Z,1980
2023-04-23T11:55:34.029Z,1980
2023-04-23T11:56:34.647Z,2008
2023-04-23T11:57:35.250Z,1906
2023-04-23T11:58:36.651Z,1968
2023-04-23T11:59:37.470Z,1940
2023-04-23T12:00:38.071Z,1884
2023-04-23T12:01:38.669Z,1704
2023-04-23T12:02:39.413Z,1636
2023-04-23T12:03:40.006Z,1653
2023-04-23T12:04:41.370Z,1670
2023-04-23T12:05:41.330Z,1710
2023-04-23T12:06:41.924Z,1766
2023-04-23T12:07:42.527Z,1833
2023-04-23T12:08:43.150Z,2013
2023-04-23T12:09:43.912Z,2047
2023-04-23T12:10:44.368Z,2188
2023-04-23T12:11:44.971Z,2683
2023-04-23T12:12:45.574Z,2615
2023-04-23T12:13:46.175Z,2188
2023-04-23T12:14:46.783Z,2205
2023-04-23T12:15:47.427Z,2401
2023-04-23T12:16:47.993Z,2435
2023-04-23T12:17:48.686Z,3031
2023-04-23T12:18:49.286Z,4021
2023-04-23T12:19:49.917Z,3178
2023-04-23T12:20:50.513Z,2801
2023-04-23T12:21:51.138Z,2497
2023-04-23T12:22:51.737Z,2199
2023-04-23T12:23:52.346Z,2103
2023-04-23T12:24:52.943Z,2030
2023-04-23T12:25:53.544Z,1963
2023-04-23T12:26:54.161Z,1991
2023-04-23T12:27:54.771Z,1946
2023-04-23T12:28:55.378Z,1906
2023-04-23T12:29:55.969Z,1878
2023-04-23T12:30:56.659Z,1845
2023-04-23T12:31:57.228Z,1805
2023-04-23T12:32:57.861Z,1800
2023-04-23T12:33:58.434Z,1800
2023-04-23T12:34:59.044Z,1811
2023-04-23T12:35:59.665Z,1805
2023-04-23T12:37:00.284Z,1861
2023-04-23T12:38:00.891Z,2115
2023-04-23T12:39:01.491Z,2171
2023-04-23T12:40:02.094Z,2446
2023-04-23T12:41:02.702Z,2120
2023-04-23T12:42:03.315Z,2154
2023-04-23T12:43:03.940Z,2109
2023-04-23T12:44:04.535Z,2688
2023-04-23T12:45:05.147Z,3116
2023-04-23T12:46:05.762Z,3645
2023-04-23T12:47:06.488Z,3442
2023-04-23T12:48:07.176Z,2964
2023-04-23T12:49:07.718Z,2863
2023-04-23T12:50:08.423Z,2964
2023-04-23T12:51:09.018Z,3313
2023-04-23T12:52:10.491Z,3245
2023-04-23T12:53:10.240Z,3397
2023-04-23T12:54:10.841Z,3099
2023-04-23T12:55:11.450Z,3015
2023-04-23T12:56:12.043Z,2885
2023-04-23T12:57:12.659Z,2615
2023-04-23T12:58:13.248Z,2160
2023-04-23T12:59:13.851Z,2311
2023-04-23T13:00:14.453Z,2660
2023-04-23T13:01:15.078Z,2790
2023-04-23T13:02:15.727Z,3172
2023-04-23T13:03:16.361Z,3043
2023-04-23T13:04:16.898Z,3009
2023-04-23T13:05:17.492Z,3031
2023-04-23T13:06:18.117Z,3178
2023-04-23T13:07:18.720Z,3110
2023-04-23T13:08:19.339Z,3791
2023-04-23T13:09:19.948Z,4336
2023-04-23T13:10:20.550Z,4398
2023-04-23T13:11:21.150Z,4106
2023-04-23T13:12:21.756Z,4089
2023-04-23T13:13:22.377Z,4218
2023-04-23T13:14:22.976Z,4128
2023-04-23T13:15:25.678Z,4190
2023-04-23T13:16:25.201Z,2908
2023-04-23T13:17:25.862Z,4691
2023-04-23T13:18:26.442Z,4398
2023-04-23T13:19:27.062Z,4331
2023-04-23T13:20:27.646Z,3870
2023-04-23T13:21:28.250Z,4359
2023-04-23T13:22:28.859Z,4325
2023-04-23T13:23:29.480Z,3954
2023-04-23T13:24:30.084Z,4151
2023-04-23T13:25:30.685Z,3847
2023-04-23T13:26:31.297Z,3436
2023-04-23T13:27:31.895Z,3262
2023-04-23T13:28:32.519Z,3195
2023-04-23T13:29:33.115Z,2863
2023-04-23T13:30:33.735Z,3290
2023-04-23T13:31:34.397Z,3285
2023-04-23T13:32:35.001Z,2829
2023-04-23T13:33:35.589Z,2919
2023-04-23T13:34:36.188Z,2998
2023-04-23T13:35:36.789Z,2908
2023-04-23T13:36:37.392Z,2874
2023-04-23T13:37:38.011Z,2851
2023-04-23T13:38:38.618Z,2986
2023-04-23T13:39:41.501Z,3054
2023-04-23T13:40:40.812Z,3088
2023-04-23T13:41:41.421Z,2823
2023-04-23T13:42:42.016Z,2520
2023-04-23T13:43:42.639Z,2683
2023-04-23T13:44:43.244Z,2621
2023-04-23T13:45:43.853Z,2632
2023-04-23T13:46:44.449Z,2626
2023-04-23T13:47:45.063Z,2570
2023-04-23T13:48:45.662Z,2401
2023-04-23T13:49:46.266Z,2340
2023-04-23T13:50:46.904Z,2131
2023-04-23T13:51:47.511Z,1957
2023-04-23T13:52:48.121Z,1783
2023-04-23T13:53:48.720Z,1828
2023-04-23T13:54:49.328Z,1687
2023-04-23T13:55:49.929Z,1642
2023-04-23T13:56:50.531Z,1625
2023-04-23T13:57:51.154Z,1524
2023-04-23T13:58:51.758Z,1473
2023-04-23T13:59:52.358Z,1462
2023-04-23T14:00:52.994Z,1462
2023-04-23T14:01:53.566Z,1479
2023-04-23T14:02:54.202Z,1490
2023-04-23T14:03:54.796Z,1507
2023-04-23T14:04:55.480Z,1530